sensor_id;sensor_type;location;lat;lon;timestamp;pressure;altitude;pressure_sealevel;temperature;humidity
57779;BME280;43608;49.486;9.640;2023-09-30T00:00:23;99416.00;;;16.47;87.27
57779;BME280;43608;49.486;9.640;2023-09-30T00:00:54;99411.56;;;16.46;87.24
57779;BME280;43608;49.486;9.640;2023-09-30T00:01:24;99418.72;;;16.45;87.28
57779;BME280;43608;49.486;9.640;2023-09-30T00:01:55;99381.56;;;16.25;87.23
57779;BME280;43608;49.486;9.640;2023-09-30T00:02:25;99408.94;;;16.43;87.06
57779;BME280;43608;49.486;9.640;2023-09-30T00:02:56;99416.03;;;16.44;87.35
57779;BME280;43608;49.486;9.640;2023-09-30T00:03:26;99412.50;;;16.43;87.49
57779;BME280;43608;49.486;9.640;2023-09-30T00:03:56;99415.19;;;16.42;87.43
57779;BME280;43608;49.486;9.640;2023-09-30T00:04:27;99393.97;;;16.31;87.59
57779;BME280;43608;49.486;9.640;2023-09-30T00:04:58;99417.00;;;16.41;87.86
57779;BME280;43608;49.486;9.640;2023-09-30T00:05:28;99421.44;;;16.41;87.75
57779;BME280;43608;49.486;9.640;2023-09-30T00:05:58;99410.84;;;16.34;87.83
57779;BME280;43608;49.486;9.640;2023-09-30T00:06:29;99419.72;;;16.38;87.86
57779;BME280;43608;49.486;9.640;2023-09-30T00:06:59;99401.16;;;16.27;87.96
57779;BME280;43608;49.486;9.640;2023-09-30T00:07:30;99414.38;;;16.37;87.87
57779;BME280;43608;49.486;9.640;2023-09-30T00:08:00;99418.88;;;16.36;87.83
57779;BME280;43608;49.486;9.640;2023-09-30T00:08:30;99417.09;;;16.35;88.18
57779;BME280;43608;49.486;9.640;2023-09-30T00:09:01;99417.97;;;16.35;87.95
57779;BME280;43608;49.486;9.640;2023-09-30T00:09:32;99426.91;;;16.36;88.05
57779;BME280;43608;49.486;9.640;2023-09-30T00:10:02;99417.97;;;16.35;88.08
57779;BME280;43608;49.486;9.640;2023-09-30T00:10:33;99418.88;;;16.34;88.09
57779;BME280;43608;49.486;9.640;2023-09-30T00:11:05;99413.59;;;16.30;88.17
57779;BME280;43608;49.486;9.640;2023-09-30T00:11:35;99410.03;;;16.29;88.26
57779;BME280;43608;49.486;9.640;2023-09-30T00:12:06;99416.25;;;16.31;88.25
57779;BME280;43608;49.486;9.640;2023-09-30T00:12:37;99418.03;;;16.32;88.41
57779;BME280;43608;49.486;9.640;2023-09-30T00:13:07;99396.91;;;16.15;88.39
57779;BME280;43608;49.486;9.640;2023-09-30T00:13:38;99424.31;;;16.30;88.42
57779;BME280;43608;49.486;9.640;2023-09-30T00:14:08;99418.06;;;16.29;88.33
57779;BME280;43608;49.486;9.640;2023-09-30T00:14:38;99411.91;;;16.24;88.43
57779;BME280;43608;49.486;9.640;2023-09-30T00:15:09;99420.75;;;16.28;88.44
57779;BME280;43608;49.486;9.640;2023-09-30T00:15:39;99396.91;;;16.14;88.52
57779;BME280;43608;49.486;9.640;2023-09-30T00:16:11;99424.38;;;16.25;88.38
57779;BME280;43608;49.486;9.640;2023-09-30T00:16:41;99423.44;;;16.28;88.27
57779;BME280;43608;49.486;9.640;2023-09-30T00:17:11;99423.44;;;16.28;88.61
57779;BME280;43608;49.486;9.640;2023-09-30T00:17:42;99422.56;;;16.27;88.48
57779;BME280;43608;49.486;9.640;2023-09-30T00:18:12;99413.63;;;16.28;88.56
57779;BME280;43608;49.486;9.640;2023-09-30T00:18:43;99415.47;;;16.25;88.59
57779;BME280;43608;49.486;9.640;2023-09-30T00:19:14;99419.00;;;16.27;88.67
57779;BME280;43608;49.486;9.640;2023-09-30T00:19:45;99423.44;;;16.28;88.44
57779;BME280;43608;49.486;9.640;2023-09-30T00:20:15;99423.44;;;16.28;88.45
57779;BME280;43608;49.486;9.640;2023-09-30T00:20:46;99396.91;;;16.15;88.47
57779;BME280;43608;49.486;9.640;2023-09-30T00:21:16;99424.34;;;16.27;88.48
57779;BME280;43608;49.486;9.640;2023-09-30T00:21:46;99419.00;;;16.27;88.15
57779;BME280;43608;49.486;9.640;2023-09-30T00:22:17;99410.13;;;16.25;88.30
57779;BME280;43608;49.486;9.640;2023-09-30T00:22:47;99413.63;;;16.27;88.25
57779;BME280;43608;49.486;9.640;2023-09-30T00:23:18;99410.16;;;16.22;88.45
57779;BME280;43608;49.486;9.640;2023-09-30T00:23:51;99415.44;;;16.26;88.34
57779;BME280;43608;49.486;9.640;2023-09-30T00:24:21;99424.34;;;16.27;88.44
57779;BME280;43608;49.486;9.640;2023-09-30T00:24:51;99366.03;;;15.93;88.17
57779;BME280;43608;49.486;9.640;2023-09-30T00:25:22;99420.81;;;16.25;88.28
57779;BME280;43608;49.486;9.640;2023-09-30T00:25:52;99419.88;;;16.27;88.03
57779;BME280;43608;49.486;9.640;2023-09-30T00:26:23;99417.22;;;16.27;88.19
57779;BME280;43608;49.486;9.640;2023-09-30T00:26:53;99413.63;;;16.27;88.10
57779;BME280;43608;49.486;9.640;2023-09-30T00:27:24;99419.00;;;16.27;88.53
57779;BME280;43608;49.486;9.640;2023-09-30T00:27:54;99389.00;;;16.08;87.92
57779;BME280;43608;49.486;9.640;2023-09-30T00:28:25;99419.91;;;16.26;87.65
57779;BME280;43608;49.486;9.640;2023-09-30T00:28:55;99419.03;;;16.25;87.54
57779;BME280;43608;49.486;9.640;2023-09-30T00:29:25;99413.75;;;16.21;87.59
57779;BME280;43608;49.486;9.640;2023-09-30T00:29:56;99417.31;;;16.21;87.57
57779;BME280;43608;49.486;9.640;2023-09-30T00:30:27;99425.28;;;16.23;87.56
57779;BME280;43608;49.486;9.640;2023-09-30T00:30:57;99398.75;;;16.10;87.40
57779;BME280;43608;49.486;9.640;2023-09-30T00:31:28;99420.84;;;16.23;87.56
57779;BME280;43608;49.486;9.640;2023-09-30T00:31:58;99419.09;;;16.21;87.39
57779;BME280;43608;49.486;9.640;2023-09-30T00:32:28;99424.44;;;16.22;87.31
57779;BME280;43608;49.486;9.640;2023-09-30T00:32:59;99420.00;;;16.19;87.43
57779;BME280;43608;49.486;9.640;2023-09-30T00:33:30;99420.84;;;16.22;87.33
57779;BME280;43608;49.486;9.640;2023-09-30T00:34:00;99420.00;;;16.19;87.23
57779;BME280;43608;49.486;9.640;2023-09-30T00:34:34;99426.28;;;16.17;87.28
57779;BME280;43608;49.486;9.640;2023-09-30T00:35:06;99410.28;;;16.12;87.39
57779;BME280;43608;49.486;9.640;2023-09-30T00:35:41;99426.22;;;16.20;87.13
57779;BME280;43608;49.486;9.640;2023-09-30T00:36:11;99428.91;;;16.20;86.97
57779;BME280;43608;49.486;9.640;2023-09-30T00:36:42;99435.16;;;16.21;87.06
57779;BME280;43608;49.486;9.640;2023-09-30T00:37:12;99433.38;;;16.19;86.90
57779;BME280;43608;49.486;9.640;2023-09-30T00:37:43;99428.03;;;16.19;86.85
57779;BME280;43608;49.486;9.640;2023-09-30T00:38:14;99428.03;;;16.19;86.91
57779;BME280;43608;49.486;9.640;2023-09-30T00:38:45;99422.72;;;16.16;86.81
57779;BME280;43608;49.486;9.640;2023-09-30T00:39:15;99431.56;;;16.20;86.71
57779;BME280;43608;49.486;9.640;2023-09-30T00:39:45;99429.81;;;16.19;86.77
57779;BME280;43608;49.486;9.640;2023-09-30T00:40:16;99434.28;;;16.18;86.86
57779;BME280;43608;49.486;9.640;2023-09-30T00:40:50;99432.50;;;16.17;86.73
57779;BME280;43608;49.486;9.640;2023-09-30T00:41:21;99434.28;;;16.18;86.74
57779;BME280;43608;49.486;9.640;2023-09-30T00:41:51;99434.28;;;16.18;86.74
57779;BME280;43608;49.486;9.640;2023-09-30T00:42:21;99436.09;;;16.16;86.77
57779;BME280;43608;49.486;9.640;2023-09-30T00:42:52;99432.50;;;16.17;86.76
57779;BME280;43608;49.486;9.640;2023-09-30T00:43:22;99436.09;;;16.18;86.78
57779;BME280;43608;49.486;9.640;2023-09-30T00:43:52;99436.09;;;16.18;87.02
57779;BME280;43608;49.486;9.640;2023-09-30T00:44:23;99430.72;;;16.18;86.80
57779;BME280;43608;49.486;9.640;2023-09-30T00:44:53;99436.09;;;16.16;86.91
57779;BME280;43608;49.486;9.640;2023-09-30T00:45:24;99442.34;;;16.17;86.71
57779;BME280;43608;49.486;9.640;2023-09-30T00:46:28;99435.22;;;16.16;86.76
57779;BME280;43608;49.486;9.640;2023-09-30T00:46:59;99421.91;;;16.10;86.60
57779;BME280;43608;49.486;9.640;2023-09-30T00:47:31;99437.88;;;16.16;86.62
57779;BME280;43608;49.486;9.640;2023-09-30T00:48:01;99430.78;;;16.13;86.64
57779;BME280;43608;49.486;9.640;2023-09-30T00:48:35;99416.63;;;16.07;86.87
57779;BME280;43608;49.486;9.640;2023-09-30T00:49:05;99395.44;;;15.93;86.79
57779;BME280;43608;49.486;9.640;2023-09-30T00:49:36;99415.78;;;16.03;86.75
57779;BME280;43608;49.486;9.640;2023-09-30T00:50:07;99439.69;;;16.15;86.74
57779;BME280;43608;49.486;9.640;2023-09-30T00:50:38;99431.66;;;16.15;86.74
57779;BME280;43608;49.486;9.640;2023-09-30T00:51:10;99444.13;;;16.15;86.64
57779;BME280;43608;49.486;9.640;2023-09-30T00:51:41;99444.13;;;16.15;86.74
57779;BME280;43608;49.486;9.640;2023-09-30T00:52:11;99444.13;;;16.15;86.77
57779;BME280;43608;49.486;9.640;2023-09-30T00:52:43;99441.50;;;16.13;86.74
57779;BME280;43608;49.486;9.640;2023-09-30T00:53:14;99441.50;;;16.12;86.65
57779;BME280;43608;49.486;9.640;2023-09-30T00:53:44;99442.34;;;16.14;86.69
57779;BME280;43608;49.486;9.640;2023-09-30T00:54:15;99438.00;;;16.08;86.71
57779;BME280;43608;49.486;9.640;2023-09-30T00:54:47;99424.72;;;16.02;86.55
57779;BME280;43608;49.486;9.640;2023-09-30T00:55:19;99446.00;;;16.11;86.46
57779;BME280;43608;49.486;9.640;2023-09-30T00:55:50;99423.00;;;15.98;86.47
57779;BME280;43608;49.486;9.640;2023-09-30T00:56:23;99445.97;;;16.13;86.54
57779;BME280;43608;49.486;9.640;2023-09-30T00:56:56;99448.59;;;16.14;86.49
57779;BME280;43608;49.486;9.640;2023-09-30T00:57:27;99450.41;;;16.12;86.45
57779;BME280;43608;49.486;9.640;2023-09-30T00:57:58;99444.19;;;16.12;86.51
57779;BME280;43608;49.486;9.640;2023-09-30T00:58:29;99444.22;;;16.10;86.32
57779;BME280;43608;49.486;9.640;2023-09-30T00:59:00;99448.63;;;16.13;86.29
57779;BME280;43608;49.486;9.640;2023-09-30T00:59:31;99448.66;;;16.11;86.35
57779;BME280;43608;49.486;9.640;2023-09-30T01:00:02;99444.19;;;16.12;86.37
57779;BME280;43608;49.486;9.640;2023-09-30T01:00:33;99437.97;;;16.11;86.35
57779;BME280;43608;49.486;9.640;2023-09-30T01:01:04;99451.31;;;16.13;86.33
57779;BME280;43608;49.486;9.640;2023-09-30T01:01:35;99440.63;;;16.10;86.45
57779;BME280;43608;49.486;9.640;2023-09-30T01:02:06;99442.44;;;16.09;86.45
57779;BME280;43608;49.486;9.640;2023-09-30T01:02:40;99449.53;;;16.12;86.51
57779;BME280;43608;49.486;9.640;2023-09-30T01:03:12;99437.09;;;16.09;86.39
57779;BME280;43608;49.486;9.640;2023-09-30T01:03:42;99442.47;;;16.08;86.56
57779;BME280;43608;49.486;9.640;2023-09-30T01:04:14;99446.91;;;16.10;86.54
57779;BME280;43608;49.486;9.640;2023-09-30T01:04:45;99443.34;;;16.08;86.36
57779;BME280;43608;49.486;9.640;2023-09-30T01:05:15;99445.16;;;16.08;86.63
57779;BME280;43608;49.486;9.640;2023-09-30T01:05:46;99446.00;;;16.10;86.50
57779;BME280;43608;49.486;9.640;2023-09-30T01:06:16;99456.72;;;16.08;86.63
57779;BME280;43608;49.486;9.640;2023-09-30T01:06:47;99450.47;;;16.09;86.49
57779;BME280;43608;49.486;9.640;2023-09-30T01:07:17;99447.88;;;16.03;86.57
57779;BME280;43608;49.486;9.640;2023-09-30T01:07:48;99449.59;;;16.07;86.60
57779;BME280;43608;49.486;9.640;2023-09-30T01:08:18;99454.03;;;16.08;86.56
57779;BME280;43608;49.486;9.640;2023-09-30T01:08:50;99447.84;;;16.05;86.62
57779;BME280;43608;49.486;9.640;2023-09-30T01:09:20;99454.97;;;16.06;86.58
57779;BME280;43608;49.486;9.640;2023-09-30T01:09:51;99461.19;;;16.08;86.57
57779;BME280;43608;49.486;9.640;2023-09-30T01:10:21;99445.25;;;16.00;86.67
57779;BME280;43608;49.486;9.640;2023-09-30T01:10:52;99444.34;;;16.01;86.49
57779;BME280;43608;49.486;9.640;2023-09-30T01:11:22;99456.75;;;16.07;86.65
57779;BME280;43608;49.486;9.640;2023-09-30T01:11:53;99451.41;;;16.05;86.54
57779;BME280;43608;49.486;9.640;2023-09-30T01:12:23;99457.66;;;16.04;86.95
57779;BME280;43608;49.486;9.640;2023-09-30T01:12:53;99455.03;;;16.02;86.64
57779;BME280;43608;49.486;9.640;2023-09-30T01:13:32;99454.13;;;16.04;86.77
57779;BME280;43608;49.486;9.640;2023-09-30T01:14:03;99459.47;;;16.04;86.78
57779;BME280;43608;49.486;9.640;2023-09-30T01:14:35;99452.34;;;16.02;86.75
57779;BME280;43608;49.486;9.640;2023-09-30T01:15:08;99460.38;;;16.02;86.85
57779;BME280;43608;49.486;9.640;2023-09-30T01:15:39;99461.25;;;16.03;87.03
57779;BME280;43608;49.486;9.640;2023-09-30T01:16:10;99455.94;;;16.00;87.10
57779;BME280;43608;49.486;9.640;2023-09-30T01:16:41;99457.69;;;16.02;86.97
57779;BME280;43608;49.486;9.640;2023-09-30T01:17:11;99463.94;;;16.01;86.46
57779;BME280;43608;49.486;9.640;2023-09-30T01:17:43;99453.28;;;16.00;86.91
57779;BME280;43608;49.486;9.640;2023-09-30T01:18:14;99453.25;;;16.01;86.86
57779;BME280;43608;49.486;9.640;2023-09-30T01:18:44;99455.03;;;15.99;86.90
57779;BME280;43608;49.486;9.640;2023-09-30T01:19:14;99457.72;;;16.01;86.86
57779;BME280;43608;49.486;9.640;2023-09-30T01:19:45;99409.94;;;15.73;86.93
57779;BME280;43608;49.486;9.640;2023-09-30T01:20:15;99458.63;;;16.00;86.91
57779;BME280;43608;49.486;9.640;2023-09-30T01:20:51;99460.41;;;16.01;86.89
57779;BME280;43608;49.486;9.640;2023-09-30T01:21:23;99461.31;;;15.98;86.95
57779;BME280;43608;49.486;9.640;2023-09-30T01:21:55;99460.44;;;15.96;87.04
57779;BME280;43608;49.486;9.640;2023-09-30T01:22:29;99461.28;;;16.00;86.98
57779;BME280;43608;49.486;9.640;2023-09-30T01:23:01;99442.75;;;15.86;87.01
57779;BME280;43608;49.486;9.640;2023-09-30T01:23:33;99455.97;;;15.98;86.99
57779;BME280;43608;49.486;9.640;2023-09-30T01:24:04;99465.75;;;15.99;87.06
57779;BME280;43608;49.486;9.640;2023-09-30T01:24:41;99455.97;;;15.98;87.10
57779;BME280;43608;49.486;9.640;2023-09-30T01:25:12;99455.09;;;15.96;87.17
57779;BME280;43608;49.486;9.640;2023-09-30T01:25:42;99455.09;;;15.96;87.09
57779;BME280;43608;49.486;9.640;2023-09-30T01:26:14;99456.84;;;15.99;87.22
57779;BME280;43608;49.486;9.640;2023-09-30T01:26:44;99463.06;;;15.99;87.17
57779;BME280;43608;49.486;9.640;2023-09-30T01:27:15;99417.06;;;15.74;87.40
57779;BME280;43608;49.486;9.640;2023-09-30T01:27:48;99462.22;;;15.97;87.44
57779;BME280;43608;49.486;9.640;2023-09-30T01:28:18;99461.31;;;15.97;87.11
57779;BME280;43608;49.486;9.640;2023-09-30T01:28:49;99441.88;;;15.87;87.18
57779;BME280;43608;49.486;9.640;2023-09-30T01:29:19;99439.25;;;15.84;87.35
57779;BME280;43608;49.486;9.640;2023-09-30T01:29:50;99457.81;;;15.95;87.31
57779;BME280;43608;49.486;9.640;2023-09-30T01:30:21;99429.44;;;15.80;87.28
57779;BME280;43608;49.486;9.640;2023-09-30T01:30:53;99459.59;;;15.93;87.56
57779;BME280;43608;49.486;9.640;2023-09-30T01:31:23;99464.94;;;15.96;87.38
57779;BME280;43608;49.486;9.640;2023-09-30T01:31:54;99464.94;;;15.96;87.33
57779;BME280;43608;49.486;9.640;2023-09-30T01:32:24;99453.41;;;15.91;87.33
57779;BME280;43608;49.486;9.640;2023-09-30T01:32:54;99455.13;;;15.95;87.30
57779;BME280;43608;49.486;9.640;2023-09-30T01:33:25;99468.50;;;15.95;87.24
57779;BME280;43608;49.486;9.640;2023-09-30T01:33:55;99453.38;;;15.92;87.32
57779;BME280;43608;49.486;9.640;2023-09-30T01:34:26;99455.22;;;15.89;87.29
57779;BME280;43608;49.486;9.640;2023-09-30T01:34:56;99464.91;;;15.94;87.23
57779;BME280;43608;49.486;9.640;2023-09-30T01:35:27;99459.56;;;15.94;87.46
57779;BME280;43608;49.486;9.640;2023-09-30T01:35:58;99463.16;;;15.95;87.42
57779;BME280;43608;49.486;9.640;2023-09-30T01:36:29;99457.81;;;15.92;87.40
57779;BME280;43608;49.486;9.640;2023-09-30T01:37:00;99452.50;;;15.90;87.43
57779;BME280;43608;49.486;9.640;2023-09-30T01:37:30;99443.63;;;15.86;87.39
57779;BME280;43608;49.486;9.640;2023-09-30T01:38:00;99459.56;;;15.94;87.40
57779;BME280;43608;49.486;9.640;2023-09-30T01:38:31;99458.69;;;15.94;87.40
57779;BME280;43608;49.486;9.640;2023-09-30T01:39:01;99458.69;;;15.94;87.39
57779;BME280;43608;49.486;9.640;2023-09-30T01:39:32;99464.91;;;15.94;87.38
57779;BME280;43608;49.486;9.640;2023-09-30T01:40:04;99464.03;;;15.94;87.32
57779;BME280;43608;49.486;9.640;2023-09-30T01:40:38;99460.50;;;15.93;87.24
57779;BME280;43608;49.486;9.640;2023-09-30T01:41:08;99459.59;;;15.93;87.29
57779;BME280;43608;49.486;9.640;2023-09-30T01:41:39;99464.94;;;15.93;87.35
57779;BME280;43608;49.486;9.640;2023-09-30T01:42:10;99460.53;;;15.90;87.88
57779;BME280;43608;49.486;9.640;2023-09-30T01:42:40;99456.94;;;15.91;87.41
57779;BME280;43608;49.486;9.640;2023-09-30T01:43:11;99460.50;;;15.93;87.41
57779;BME280;43608;49.486;9.640;2023-09-30T01:43:43;99473.88;;;15.93;87.48
57779;BME280;43608;49.486;9.640;2023-09-30T01:44:14;99441.06;;;15.77;87.67
57779;BME280;43608;49.486;9.640;2023-09-30T01:44:44;99472.06;;;15.94;87.57
57779;BME280;43608;49.486;9.640;2023-09-30T01:45:14;99464.09;;;15.91;87.59
57779;BME280;43608;49.486;9.640;2023-09-30T01:45:45;99455.25;;;15.85;87.67
57779;BME280;43608;49.486;9.640;2023-09-30T01:46:15;99451.72;;;15.83;87.75
57779;BME280;43608;49.486;9.640;2023-09-30T01:46:45;99470.28;;;15.93;87.62
57779;BME280;43608;49.486;9.640;2023-09-30T01:47:16;99479.22;;;15.92;87.71
57779;BME280;43608;49.486;9.640;2023-09-30T01:47:46;99470.31;;;15.91;87.76
57779;BME280;43608;49.486;9.640;2023-09-30T01:48:17;99442.00;;;15.73;87.88
57779;BME280;43608;49.486;9.640;2023-09-30T01:48:47;99473.88;;;15.90;87.87
57779;BME280;43608;49.486;9.640;2023-09-30T01:49:18;99474.78;;;15.89;88.21
57779;BME280;43608;49.486;9.640;2023-09-30T01:49:48;99470.38;;;15.88;88.25
57779;BME280;43608;49.486;9.640;2023-09-30T01:50:19;99474.88;;;15.84;88.49
57779;BME280;43608;49.486;9.640;2023-09-30T01:50:50;99473.94;;;15.87;88.54
57779;BME280;43608;49.486;9.640;2023-09-30T01:51:21;99473.06;;;15.85;88.89
57779;BME280;43608;49.486;9.640;2023-09-30T01:51:52;99477.53;;;15.84;89.00
57779;BME280;43608;49.486;9.640;2023-09-30T01:52:22;99477.59;;;15.81;89.16
57779;BME280;43608;49.486;9.640;2023-09-30T01:52:52;99471.34;;;15.78;89.44
57779;BME280;43608;49.486;9.640;2023-09-30T01:53:23;99452.78;;;15.67;89.54
57779;BME280;43608;49.486;9.640;2023-09-30T01:53:53;99468.72;;;15.73;89.68
57779;BME280;43608;49.486;9.640;2023-09-30T01:54:23;99482.91;;;15.80;89.81
57779;BME280;43608;49.486;9.640;2023-09-30T01:54:54;99479.38;;;15.78;90.07
57779;BME280;43608;49.486;9.640;2023-09-30T01:55:24;99482.94;;;15.77;90.46
57779;BME280;43608;49.486;9.640;2023-09-30T01:55:54;99479.41;;;15.75;90.35
57779;BME280;43608;49.486;9.640;2023-09-30T01:56:25;99488.34;;;15.74;90.55
57779;BME280;43608;49.486;9.640;2023-09-30T01:56:55;99482.13;;;15.72;90.73
57779;BME280;43608;49.486;9.640;2023-09-30T01:57:26;99475.91;;;15.69;90.83
57779;BME280;43608;49.486;9.640;2023-09-30T01:57:56;99491.06;;;15.69;91.08
57779;BME280;43608;49.486;9.640;2023-09-30T01:58:27;99483.06;;;15.67;91.28
57779;BME280;43608;49.486;9.640;2023-09-30T01:58:57;99483.97;;;15.66;91.60
57779;BME280;43608;49.486;9.640;2023-09-30T01:59:27;99485.75;;;15.64;91.57
57779;BME280;43608;49.486;9.640;2023-09-30T01:59:58;99488.44;;;15.63;91.72
57779;BME280;43608;49.486;9.640;2023-09-30T02:00:29;99487.59;;;15.62;91.83
57779;BME280;43608;49.486;9.640;2023-09-30T02:01:03;99484.03;;;15.60;92.14
57779;BME280;43608;49.486;9.640;2023-09-30T02:01:33;99476.03;;;15.59;92.31
57779;BME280;43608;49.486;9.640;2023-09-30T02:02:04;99484.06;;;15.59;92.43
57779;BME280;43608;49.486;9.640;2023-09-30T02:02:34;99484.09;;;15.57;92.64
57779;BME280;43608;49.486;9.640;2023-09-30T02:03:05;99478.75;;;15.56;92.74
57779;BME280;43608;49.486;9.640;2023-09-30T02:03:35;99484.09;;;15.56;92.94
57779;BME280;43608;49.486;9.640;2023-09-30T02:04:06;99484.13;;;15.52;92.98
57779;BME280;43608;49.486;9.640;2023-09-30T02:04:36;99480.56;;;15.53;93.17
57779;BME280;43608;49.486;9.640;2023-09-30T02:05:07;99483.25;;;15.52;93.20
57779;BME280;43608;49.486;9.640;2023-09-30T02:05:40;99474.38;;;15.48;93.35
57779;BME280;43608;49.486;9.640;2023-09-30T02:06:11;99477.94;;;15.47;93.34
57779;BME280;43608;49.486;9.640;2023-09-30T02:06:41;99483.28;;;15.50;93.49
57779;BME280;43608;49.486;9.640;2023-09-30T02:07:12;99479.75;;;15.47;93.55
57779;BME280;43608;49.486;9.640;2023-09-30T02:07:42;99488.63;;;15.49;93.59
57779;BME280;43608;49.486;9.640;2023-09-30T02:08:13;99486.88;;;15.48;93.57
57779;BME280;43608;49.486;9.640;2023-09-30T02:08:43;99488.63;;;15.47;93.67
57779;BME280;43608;49.486;9.640;2023-09-30T02:09:14;99490.44;;;15.47;93.68
57779;BME280;43608;49.486;9.640;2023-09-30T02:09:45;99486.88;;;15.48;93.75
57779;BME280;43608;49.486;9.640;2023-09-30T02:10:15;99487.75;;;15.47;93.76
57779;BME280;43608;49.486;9.640;2023-09-30T02:10:46;99494.91;;;15.46;93.84
57779;BME280;43608;49.486;9.640;2023-09-30T02:11:17;99468.34;;;15.32;93.89
57779;BME280;43608;49.486;9.640;2023-09-30T02:11:47;99496.66;;;15.46;94.29
57779;BME280;43608;49.486;9.640;2023-09-30T02:12:17;99490.44;;;15.45;94.10
57779;BME280;43608;49.486;9.640;2023-09-30T02:12:48;99494.91;;;15.45;94.18
57779;BME280;43608;49.486;9.640;2023-09-30T02:13:19;99489.63;;;15.40;94.03
57779;BME280;43608;49.486;9.640;2023-09-30T02:13:49;99490.47;;;15.42;94.21
57779;BME280;43608;49.486;9.640;2023-09-30T02:14:20;99502.94;;;15.43;94.35
57779;BME280;43608;49.486;9.640;2023-09-30T02:14:50;99502.94;;;15.43;94.41
57779;BME280;43608;49.486;9.640;2023-09-30T02:15:21;99496.72;;;15.43;94.48
57779;BME280;43608;49.486;9.640;2023-09-30T02:15:51;99501.16;;;15.42;94.59
57779;BME280;43608;49.486;9.640;2023-09-30T02:16:22;99496.72;;;15.43;94.65
57779;BME280;43608;49.486;9.640;2023-09-30T02:16:53;99503.81;;;15.42;94.62
57779;BME280;43608;49.486;9.640;2023-09-30T02:17:23;99471.97;;;15.24;94.81
57779;BME280;43608;49.486;9.640;2023-09-30T02:17:53;99502.09;;;15.41;94.90
57779;BME280;43608;49.486;9.640;2023-09-30T02:18:24;99505.63;;;15.42;94.88
57779;BME280;43608;49.486;9.640;2023-09-30T02:18:54;99506.50;;;15.41;94.96
57779;BME280;43608;49.486;9.640;2023-09-30T02:19:25;99486.16;;;15.30;94.95
57779;BME280;43608;49.486;9.640;2023-09-30T02:19:57;99505.66;;;15.40;95.07
57779;BME280;43608;49.486;9.640;2023-09-30T02:20:28;99505.66;;;15.40;95.16
57779;BME280;43608;49.486;9.640;2023-09-30T02:21:00;99499.41;;;15.38;95.08
57779;BME280;43608;49.486;9.640;2023-09-30T02:21:30;99508.28;;;15.42;95.35
57779;BME280;43608;49.486;9.640;2023-09-30T02:22:01;99489.69;;;15.34;95.24
57779;BME280;43608;49.486;9.640;2023-09-30T02:22:32;99499.41;;;15.40;95.22
57779;BME280;43608;49.486;9.640;2023-09-30T02:23:03;99490.59;;;15.31;95.18
57779;BME280;43608;49.486;9.640;2023-09-30T02:23:36;99504.75;;;15.40;95.32
57779;BME280;43608;49.486;9.640;2023-09-30T02:24:06;99503.00;;;15.39;95.32
57779;BME280;43608;49.486;9.640;2023-09-30T02:24:37;99502.06;;;15.40;95.27
57779;BME280;43608;49.486;9.640;2023-09-30T02:25:10;99502.09;;;15.38;95.19
57779;BME280;43608;49.486;9.640;2023-09-30T02:25:42;99500.41;;;15.31;95.22
57779;BME280;43608;49.486;9.640;2023-09-30T02:26:15;99505.66;;;15.39;95.23
57779;BME280;43608;49.486;9.640;2023-09-30T02:26:46;99502.13;;;15.36;94.99
57779;BME280;43608;49.486;9.640;2023-09-30T02:27:16;99494.13;;;15.32;95.38
57779;BME280;43608;49.486;9.640;2023-09-30T02:27:49;99501.22;;;15.38;95.33
57779;BME280;43608;49.486;9.640;2023-09-30T02:28:19;99501.22;;;15.38;95.49
57779;BME280;43608;49.486;9.640;2023-09-30T02:28:50;99500.31;;;15.37;95.42
57779;BME280;43608;49.486;9.640;2023-09-30T02:29:20;99495.03;;;15.32;95.37
57779;BME280;43608;49.486;9.640;2023-09-30T02:29:51;99499.44;;;15.36;95.48
57779;BME280;43608;49.486;9.640;2023-09-30T02:30:21;99504.78;;;15.36;95.20
57779;BME280;43608;49.486;9.640;2023-09-30T02:30:51;99497.66;;;15.35;95.20
57779;BME280;43608;49.486;9.640;2023-09-30T02:31:23;99503.88;;;15.38;95.40
57779;BME280;43608;49.486;9.640;2023-09-30T02:31:54;99495.94;;;15.31;95.40
57779;BME280;43608;49.486;9.640;2023-09-30T02:32:25;99489.72;;;15.31;95.52
57779;BME280;43608;49.486;9.640;2023-09-30T02:32:55;99500.31;;;15.37;95.71
57779;BME280;43608;49.486;9.640;2023-09-30T02:33:26;99500.34;;;15.34;95.89
57779;BME280;43608;49.486;9.640;2023-09-30T02:33:57;99506.56;;;15.38;95.69
57779;BME280;43608;49.486;9.640;2023-09-30T02:34:27;99500.31;;;15.39;95.79
57779;BME280;43608;49.486;9.640;2023-09-30T02:35:00;99502.13;;;15.36;95.86
57779;BME280;43608;49.486;9.640;2023-09-30T02:35:30;99503.00;;;15.37;95.92
57779;BME280;43608;49.486;9.640;2023-09-30T02:36:01;99502.09;;;15.38;96.02
57779;BME280;43608;49.486;9.640;2023-09-30T02:36:31;99506.56;;;15.38;95.93
57779;BME280;43608;49.486;9.640;2023-09-30T02:37:02;99488.81;;;15.33;95.97
57779;BME280;43608;49.486;9.640;2023-09-30T02:37:33;99496.81;;;15.33;95.99
57779;BME280;43608;49.486;9.640;2023-09-30T02:38:07;99506.56;;;15.38;96.21
57779;BME280;43608;49.486;9.640;2023-09-30T02:38:38;99500.34;;;15.35;96.11
57779;BME280;43608;49.486;9.640;2023-09-30T02:39:09;99511.91;;;15.38;96.31
57779;BME280;43608;49.486;9.640;2023-09-30T02:39:39;99499.44;;;15.36;96.11
57779;BME280;43608;49.486;9.640;2023-09-30T02:40:10;99504.75;;;15.38;96.40
57779;BME280;43608;49.486;9.640;2023-09-30T02:40:41;99503.88;;;15.38;96.25
57779;BME280;43608;49.486;9.640;2023-09-30T02:41:16;99497.66;;;15.37;96.44
57779;BME280;43608;49.486;9.640;2023-09-30T02:41:46;99507.44;;;15.38;96.37
57779;BME280;43608;49.486;9.640;2023-09-30T02:42:17;99497.66;;;15.35;96.42
57779;BME280;43608;49.486;9.640;2023-09-30T02:42:47;99497.66;;;15.37;96.40
57779;BME280;43608;49.486;9.640;2023-09-30T02:43:18;99469.38;;;15.19;96.33
57779;BME280;43608;49.486;9.640;2023-09-30T02:43:50;99503.00;;;15.37;96.75
57779;BME280;43608;49.486;9.640;2023-09-30T02:44:20;99479.97;;;15.28;97.05